Time;durP1;ratioP1;P1;durP2;ratioP2;P2;SDS_P1;SDS_P2;PMS_P1;PMS_P2;Temp;Humidity;BMP_temperature;BMP_pressure;BME280_temperature;BME280_humidity;BME280_pressure;Samples;Min_cycle;Max_cycle;Signal;HPM_P1;HPM_P2
2023/08/26 00:02:12;;;;;;;6.22;5.15;;;21.70;96.70;;;;;;4202778;28;20048;-56
2023/08/26 00:04:33;;;;;;;4.20;3.30;;;21.40;97.50;;;;;;4200422;28;20067;-56
2023/08/26 00:06:52;;;;;;;3.50;3.30;;;21.50;96.80;;;;;;4201565;28;20050;-56
2023/08/26 00:09:12;;;;;;;3.75;3.65;;;21.50;96.80;;;;;;4204424;28;20051;-56
2023/08/26 00:11:32;;;;;;;3.38;2.92;;;21.50;97.10;;;;;;4201469;28;20048;-56
2023/08/26 00:13:52;;;;;;;3.40;3.30;;;21.10;98.00;;;;;;4200292;28;20051;-56
2023/08/26 00:16:13;;;;;;;3.03;2.92;;;21.10;98.80;;;;;;4202388;28;20051;-56
2023/08/26 00:18:32;;;;;;;3.00;2.90;;;21.40;98.20;;;;;;4202654;28;20090;-56
2023/08/26 00:20:52;;;;;;;2.75;2.55;;;21.40;97.10;;;;;;4201273;28;20050;-56
2023/08/26 00:23:12;;;;;;;2.42;2.33;;;21.50;96.90;;;;;;4201725;28;20052;-56
2023/08/26 00:25:32;;;;;;;3.13;2.92;;;21.50;96.70;;;;;;4203246;28;20044;-56
2023/08/26 00:27:52;;;;;;;3.05;2.85;;;21.50;96.90;;;;;;4205674;28;20059;-56
2023/08/26 00:30:12;;;;;;;3.38;3.17;;;21.30;97.50;;;;;;4203770;28;20082;-55
2023/08/26 00:32:32;;;;;;;3.00;2.90;;;21.40;97.70;;;;;;4201619;28;20082;-56
2023/08/26 00:34:52;;;;;;;3.03;2.92;;;21.40;97.80;;;;;;4200257;28;20051;-56
2023/08/26 00:37:12;;;;;;;3.08;2.97;;;21.40;97.70;;;;;;4201085;28;20047;-56
2023/08/26 00:39:32;;;;;;;3.30;3.20;;;21.10;98.00;;;;;;4201489;28;20397;-56
2023/08/26 00:41:52;;;;;;;3.15;3.05;;;20.90;98.50;;;;;;4202319;28;20052;-56
2023/08/26 00:44:12;;;;;;;3.42;3.15;;;20.80;98.40;;;;;;4203171;28;20044;-57
2023/08/26 00:46:32;;;;;;;3.40;3.20;;;20.70;98.90;;;;;;4203400;28;20047;-56
2023/08/26 00:48:52;;;;;;;3.00;2.90;;;20.90;98.30;;;;;;4202358;28;20090;-57
2023/08/26 00:51:12;;;;;;;3.05;2.85;;;20.80;98.70;;;;;;4204871;28;20071;-56
2023/08/26 00:53:33;;;;;;;4.65;4.35;;;20.90;98.50;;;;;;4204300;28;20389;-56
2023/08/26 00:55:54;;;;;;;4.75;2.95;;;21.00;98.20;;;;;;4204219;28;20043;-56
2023/08/26 00:58:15;;;;;;;4.00;3.90;;;20.90;98.20;;;;;;4203376;28;20047;-57
2023/08/26 01:00:39;;;;;;;3.95;3.78;;;20.70;99.00;;;;;;4203700;28;20051;-56
2023/08/26 01:02:59;;;;;;;3.40;3.20;;;20.50;99.90;;;;;;4203755;28;20082;-56
2023/08/26 01:05:19;;;;;;;2.97;2.78;;;20.10;99.90;;;;;;4202929;28;20051;-56
2023/08/26 01:07:39;;;;;;;3.33;3.22;;;20.20;99.90;;;;;;4202343;28;20070;-57
2023/08/26 01:09:59;;;;;;;3.05;2.90;;;20.10;99.90;;;;;;4203000;28;20153;-57
2023/08/26 01:12:40;;;;;;;3.25;3.15;;;20.00;99.90;;;;;;4203095;28;20075;-57
2023/08/26 01:15:12;;;;;;;3.97;3.65;;;20.20;99.90;;;;;;4203082;28;20098;-56
2023/08/26 01:17:34;;;;;;;4.63;4.22;;;20.50;99.90;;;;;;4202892;28;20396;-56
2023/08/26 01:19:57;;;;;;;4.82;3.78;;;20.30;99.90;;;;;;4202505;28;20047;-56
2023/08/26 01:22:22;;;;;;;3.45;3.35;;;20.40;99.90;;;;;;4201493;28;20039;-56
2023/08/26 01:24:42;;;;;;;4.60;4.22;;;20.40;99.90;;;;;;4202981;28;20217;-56
2023/08/26 01:27:02;;;;;;;3.70;3.60;;;20.40;99.90;;;;;;4201634;28;20363;-56
2023/08/26 01:29:22;;;;;;;3.60;3.40;;;20.40;99.90;;;;;;4198793;28;20608;-57
2023/08/26 01:31:45;;;;;;;4.22;3.92;;;20.30;99.90;;;;;;4200248;28;20083;-56
2023/08/26 01:34:17;;;;;;;4.28;4.07;;;20.20;99.90;;;;;;4200936;28;20062;-56
2023/08/26 01:36:42;;;;;;;3.88;3.78;;;20.20;99.90;;;;;;4201674;28;20039;-56
2023/08/26 01:39:04;;;;;;;4.50;4.10;;;20.30;99.90;;;;;;4200232;28;20064;-56
2023/08/26 01:41:25;;;;;;;3.47;3.38;;;20.00;99.90;;;;;;4202581;28;20078;-56
2023/08/26 01:43:46;;;;;;;4.00;3.78;;;20.10;99.90;;;;;;4201232;28;20062;-56
2023/08/26 01:46:06;;;;;;;5.05;4.60;;;20.00;99.90;;;;;;4196567;28;20047;-56
2023/08/26 01:48:26;;;;;;;4.82;4.72;;;20.00;99.90;;;;;;4201670;28;20082;-56
2023/08/26 01:50:46;;;;;;;3.72;3.58;;;19.90;99.90;;;;;;4196637;28;20296;-56
2023/08/26 01:53:06;;;;;;;4.60;4.50;;;19.80;99.90;;;;;;4199164;28;20097;-56
2023/08/26 01:55:26;;;;;;;4.38;4.28;;;19.70;99.90;;;;;;4206287;28;20048;-56
2023/08/26 01:57:46;;;;;;;6.13;5.85;;;19.50;99.90;;;;;;4200807;28;20370;-56
2023/08/26 02:00:07;;;;;;;4.85;4.75;;;19.40;99.90;;;;;;4204275;28;20086;-57
2023/08/26 02:02:26;;;;;;;4.63;4.53;;;19.30;99.90;;;;;;4202775;28;20311;-56
2023/08/26 02:04:46;;;;;;;4.97;4.78;;;19.30;99.90;;;;;;4204743;28;20239;-56
2023/08/26 02:07:06;;;;;;;4.07;3.92;;;19.40;99.90;;;;;;4203159;28;20350;-56
2023/08/26 02:09:26;;;;;;;5.47;5.38;;;19.50;99.90;;;;;;4202176;28;20051;-56
2023/08/26 02:11:46;;;;;;;4.72;4.47;;;19.60;99.90;;;;;;4205078;28;20063;-56
2023/08/26 02:14:06;;;;;;;6.28;6.07;;;19.60;99.90;;;;;;4198059;28;20076;-56
2023/08/26 02:16:26;;;;;;;5.28;4.97;;;19.30;99.90;;;;;;4198565;28;20090;-56
2023/08/26 02:18:46;;;;;;;6.20;5.30;;;19.10;99.90;;;;;;4205747;28;20051;-59
2023/08/26 02:21:06;;;;;;;5.68;5.47;;;19.00;99.90;;;;;;4202087;28;20052;-59
2023/08/26 02:23:26;;;;;;;5.68;4.75;;;18.90;99.90;;;;;;4207076;28;20082;-59
2023/08/26 02:25:45;;;;;;;5.13;4.93;;;18.90;99.90;;;;;;4204778;28;20400;-59
2023/08/26 02:28:05;;;;;;;5.10;4.90;;;18.90;99.90;;;;;;4204240;28;20056;-59
2023/08/26 02:30:25;;;;;;;5.28;4.78;;;18.70;99.90;;;;;;4205876;28;20051;-59
2023/08/26 02:32:45;;;;;;;4.88;4.60;;;18.50;99.90;;;;;;4201798;28;20279;-59
2023/08/26 02:35:05;;;;;;;5.22;5.03;;;18.70;99.90;;;;;;4206132;28;20051;-59
2023/08/26 02:37:25;;;;;;;4.93;4.63;;;18.80;99.90;;;;;;4200278;28;20065;-59
2023/08/26 02:39:45;;;;;;;7.05;6.60;;;18.80;99.90;;;;;;4202706;28;20056;-58
2023/08/26 02:42:05;;;;;;;5.32;4.90;;;18.80;99.90;;;;;;4204267;28;20086;-59
2023/08/26 02:44:25;;;;;;;4.75;4.65;;;18.90;99.90;;;;;;4203106;28;20051;-58
2023/08/26 02:46:45;;;;;;;5.75;5.53;;;18.90;99.90;;;;;;4202426;28;20110;-58
2023/08/26 02:49:05;;;;;;;4.85;4.65;;;18.70;99.90;;;;;;4203511;28;20383;-58
2023/08/26 02:51:24;;;;;;;5.88;5.68;;;18.60;99.90;;;;;;4202817;28;20050;-58
2023/08/26 02:53:44;;;;;;;4.72;4.63;;;18.60;99.90;;;;;;4202124;28;20063;-59
2023/08/26 02:56:04;;;;;;;6.32;5.78;;;18.40;99.90;;;;;;4203449;28;20104;-59
2023/08/26 02:58:24;;;;;;;4.82;4.72;;;18.60;99.90;;;;;;4204872;28;20105;-58
2023/08/26 03:00:44;;;;;;;6.25;5.53;;;18.50;99.90;;;;;;4203764;28;20325;-61
2023/08/26 03:03:04;;;;;;;5.38;5.25;;;18.50;99.90;;;;;;4204064;28;20149;-61
2023/08/26 03:05:24;;;;;;;5.50;5.40;;;18.60;99.90;;;;;;4202539;28;20086;-61
2023/08/26 03:07:44;;;;;;;5.50;5.20;;;18.60;99.90;;;;;;4202086;28;20401;-61
2023/08/26 03:10:05;;;;;;;5.50;5.35;;;18.60;99.90;;;;;;4201545;28;20068;-61
2023/08/26 03:12:24;;;;;;;6.05;5.75;;;18.60;99.90;;;;;;4201985;28;20048;-60
2023/08/26 03:14:45;;;;;;;5.93;5.63;;;18.40;99.90;;;;;;4200878;28;20047;-61
2023/08/26 03:17:04;;;;;;;4.97;4.85;;;18.30;99.90;;;;;;4200351;28;20083;-61
2023/08/26 03:19:24;;;;;;;5.88;5.68;;;18.40;99.90;;;;;;4203595;28;20397;-61
2023/08/26 03:21:44;;;;;;;5.93;5.63;;;18.40;99.90;;;;;;4204746;28;20112;-61
2023/08/26 03:24:04;;;;;;;6.88;6.25;;;18.00;99.90;;;;;;4204845;28;20055;-61
2023/08/26 03:26:24;;;;;;;6.65;6.35;;;18.00;99.90;;;;;;4202525;28;20044;-61
2023/08/26 03:28:43;;;;;;;5.97;5.72;;;18.20;99.90;;;;;;4205110;28;20051;-61
2023/08/26 03:31:05;;;;;;;5.32;5.03;;;18.20;99.90;;;;;;4200631;28;20050;-61
2023/08/26 03:33:25;;;;;;;6.68;6.30;;;18.00;99.90;;;;;;4198623;28;20101;-61
2023/08/26 03:35:45;;;;;;;5.13;5.03;;;18.00;99.90;;;;;;4202149;28;20047;-61
2023/08/26 03:38:06;;;;;;;5.82;5.72;;;18.20;99.90;;;;;;4202265;28;20055;-61
2023/08/26 03:40:26;;;;;;;5.13;5.03;;;18.00;99.90;;;;;;4200519;28;20044;-61
2023/08/26 03:42:45;;;;;;;6.40;6.30;;;18.00;99.90;;;;;;4201455;28;20121;-60
2023/08/26 03:45:06;;;;;;;5.63;5.43;;;18.10;99.90;;;;;;4204687;28;20125;-60
2023/08/26 03:47:25;;;;;;;5.53;5.13;;;18.10;99.90;;;;;;4203669;28;20071;-61
2023/08/26 03:49:45;;;;;;;5.95;5.65;;;18.10;99.90;;;;;;4202359;28;20044;-61
2023/08/26 03:52:05;;;;;;;5.20;5.10;;;18.10;99.90;;;;;;4205922;28;20051;-61
2023/08/26 03:54:25;;;;;;;5.30;5.10;;;17.90;99.90;;;;;;4203080;28;20232;-61
2023/08/26 03:56:45;;;;;;;6.65;6.38;;;17.70;99.90;;;;;;4203267;28;20071;-61
2023/08/26 03:59:05;;;;;;;7.47;6.82;;;17.50;99.90;;;;;;4202215;28;20117;-61
2023/08/26 04:01:25;;;;;;;6.80;6.50;;;17.30;99.90;;;;;;4202660;28;20291;-61
2023/08/26 04:03:45;;;;;;;7.10;6.78;;;17.40;99.90;;;;;;4201437;28;20092;-61
2023/08/26 04:06:05;;;;;;;6.40;6.10;;;17.20;99.90;;;;;;4189838;28;20051;-61
2023/08/26 04:08:26;;;;;;;6.97;6.70;;;17.20;99.90;;;;;;4205276;28;20063;-61
2023/08/26 04:10:46;;;;;;;7.10;6.80;;;17.20;99.90;;;;;;4203076;28;20043;-61
2023/08/26 04:13:21;;;;;;;6.50;6.22;;;17.20;99.90;;;;;;4203323;28;20278;-61
2023/08/26 04:15:42;;;;;;;6.25;6.15;;;17.10;99.90;;;;;;4204452;28;20068;-61
2023/08/26 04:18:03;;;;;;;7.75;7.40;;;17.30;99.90;;;;;;4203312;28;20063;-61
2023/08/26 04:20:23;;;;;;;6.80;6.38;;;17.40;99.90;;;;;;4202474;28;20055;-61
2023/08/26 04:22:43;;;;;;;7.57;7.38;;;17.40;99.90;;;;;;4201162;28;20079;-60
2023/08/26 04:25:05;;;;;;;6.22;6.03;;;17.30;99.90;;;;;;4202250;28;20091;-61
2023/08/26 04:27:25;;;;;;;6.57;6.20;;;17.50;99.90;;;;;;4202963;28;20454;-60
2023/08/26 04:29:45;;;;;;;6.95;6.45;;;17.30;99.90;;;;;;4204351;28;20242;-61
2023/08/26 04:32:06;;;;;;;6.65;6.28;;;17.20;99.90;;;;;;4203226;28;20063;-61
2023/08/26 04:34:26;;;;;;;7.97;7.43;;;17.20;99.90;;;;;;4202718;28;20060;-61
2023/08/26 04:36:45;;;;;;;6.65;6.45;;;17.30;99.90;;;;;;4203749;28;20043;-61
2023/08/26 04:39:11;;;;;;;7.38;6.85;;;17.40;99.90;;;;;;4204150;28;20048;-61
2023/08/26 04:41:32;;;;;;;7.03;6.72;;;17.50;99.90;;;;;;4204312;28;20051;-61
2023/08/26 04:43:53;;;;;;;7.18;6.78;;;17.50;99.90;;;;;;4203818;28;20412;-61
2023/08/26 04:46:12;;;;;;;7.28;7.07;;;17.30;99.90;;;;;;4200188;28;20090;-61
2023/08/26 04:48:33;;;;;;;11.88;10.73;;;17.20;99.90;;;;;;4200277;28;20044;-61
2023/08/26 04:50:53;;;;;;;11.27;10.57;;;17.10;99.90;;;;;;4204370;28;20082;-61
2023/08/26 04:53:13;;;;;;;14.65;13.43;;;17.10;99.90;;;;;;4205073;28;20072;-61
2023/08/26 04:55:33;;;;;;;14.93;13.60;;;17.00;99.90;;;;;;4202861;28;20298;-61
2023/08/26 04:57:54;;;;;;;15.20;14.15;;;17.00;99.90;;;;;;4203887;28;20047;-61
2023/08/26 05:00:16;;;;;;;14.50;13.55;;;17.00;99.90;;;;;;4203980;28;20043;-61
2023/08/26 05:02:39;;;;;;;15.50;14.38;;;17.00;99.90;;;;;;4201907;28;20082;-61
2023/08/26 05:04:59;;;;;;;12.90;12.10;;;16.90;99.90;;;;;;4198472;28;20235;-61
2023/08/26 05:07:20;;;;;;;11.77;10.98;;;16.90;99.90;;;;;;4201689;28;20047;-61
2023/08/26 05:09:39;;;;;;;11.05;10.55;;;17.00;99.90;;;;;;4197865;28;20108;-61
2023/08/26 05:11:59;;;;;;;8.75;8.23;;;16.90;99.90;;;;;;4196383;28;20367;-61
2023/08/26 05:14:20;;;;;;;9.93;8.95;;;16.90;99.90;;;;;;4203189;28;20047;-61
2023/08/26 05:16:40;;;;;;;9.57;8.90;;;16.90;99.90;;;;;;4196140;28;20052;-61
2023/08/26 05:19:00;;;;;;;8.52;8.13;;;16.80;99.90;;;;;;4199214;28;20292;-61
2023/08/26 05:21:20;;;;;;;10.70;9.15;;;16.90;99.90;;;;;;4201920;28;20100;-61
2023/08/26 05:23:40;;;;;;;9.05;8.52;;;16.90;99.90;;;;;;4203355;28;20056;-61
2023/08/26 05:26:00;;;;;;;7.63;7.43;;;17.20;99.90;;;;;;4204427;28;20052;-61
2023/08/26 05:28:21;;;;;;;8.48;8.27;;;17.30;99.90;;;;;;4200527;28;20301;-61
2023/08/26 05:30:41;;;;;;;9.35;8.63;;;17.40;99.90;;;;;;4204744;28;20047;-61
2023/08/26 05:33:01;;;;;;;9.48;9.07;;;17.40;99.90;;;;;;4204330;28;20239;-61
2023/08/26 05:35:21;;;;;;;8.13;7.82;;;17.40;99.90;;;;;;4206537;28;20052;-61
2023/08/26 05:37:44;;;;;;;9.18;8.75;;;17.40;99.90;;;;;;4203911;28;20251;-61
2023/08/26 05:40:05;;;;;;;7.43;7.05;;;17.40;99.90;;;;;;4204492;28;20142;-61
2023/08/26 05:42:25;;;;;;;7.80;7.60;;;17.30;99.90;;;;;;4204234;28;20043;-61
2023/08/26 05:44:44;;;;;;;7.50;7.30;;;17.30;99.90;;;;;;4205905;28;20051;-61
2023/08/26 05:47:04;;;;;;;8.20;7.90;;;17.50;99.90;;;;;;4205176;28;20048;-61
2023/08/26 05:49:24;;;;;;;8.13;7.72;;;17.70;99.90;;;;;;4203123;28;20094;-61
2023/08/26 05:51:44;;;;;;;7.38;7.03;;;17.70;99.90;;;;;;4204619;28;20082;-61
2023/08/26 05:54:05;;;;;;;8.68;7.95;;;17.70;99.90;;;;;;4204588;28;20239;-61
2023/08/26 05:56:25;;;;;;;7.13;6.82;;;17.80;99.90;;;;;;4204452;28;20077;-61
2023/08/26 05:58:46;;;;;;;8.73;7.93;;;17.90;99.90;;;;;;4205065;28;20454;-61
2023/08/26 06:01:06;;;;;;;7.07;6.82;;;17.70;99.90;;;;;;4204408;28;20083;-61
2023/08/26 06:03:26;;;;;;;8.82;8.32;;;17.90;99.90;;;;;;4203103;28;20067;-61
2023/08/26 06:05:46;;;;;;;7.32;7.13;;;17.90;99.90;;;;;;4200166;28;20086;-61
2023/08/26 06:08:06;;;;;;;7.50;7.30;;;17.90;99.90;;;;;;4202662;28;20365;-61
2023/08/26 06:10:26;;;;;;;7.72;7.38;;;18.00;99.90;;;;;;4201523;28;20048;-61
2023/08/26 06:12:46;;;;;;;7.97;7.35;;;18.10;99.90;;;;;;4200174;28;20063;-61
2023/08/26 06:15:07;;;;;;;8.43;7.63;;;18.40;99.90;;;;;;4205583;28;20066;-61
2023/08/26 06:17:28;;;;;;;7.68;7.18;;;18.40;99.90;;;;;;4204458;28;20039;-61
2023/08/26 06:19:47;;;;;;;7.53;7.22;;;18.70;99.90;;;;;;4203882;28;20305;-61
2023/08/26 06:22:07;;;;;;;6.90;6.60;;;18.80;99.90;;;;;;4205020;28;20043;-61
2023/08/26 06:24:27;;;;;;;7.00;6.75;;;18.80;99.90;;;;;;4204263;28;20295;-61
2023/08/26 06:26:47;;;;;;;6.43;6.05;;;19.10;99.90;;;;;;4202128;28;20052;-61
2023/08/26 06:29:07;;;;;;;7.65;7.05;;;19.20;99.90;;;;;;4198870;28;20039;-61
2023/08/26 06:31:28;;;;;;;7.75;7.20;;;19.30;99.90;;;;;;4202501;28;20043;-61
2023/08/26 06:33:49;;;;;;;8.13;7.72;;;19.40;99.90;;;;;;4204431;28;20048;-61
2023/08/26 06:36:09;;;;;;;8.23;7.53;;;19.60;99.90;;;;;;4198246;28;20047;-61
2023/08/26 06:38:29;;;;;;;7.53;7.13;;;19.70;99.90;;;;;;4202739;28;20075;-61
2023/08/26 06:40:56;;;;;;;5.82;5.65;;;19.90;99.90;;;;;;4203997;28;20232;-61
2023/08/26 06:43:16;;;;;;;7.97;7.32;;;20.10;99.90;;;;;;4202787;28;20040;-61
2023/08/26 06:45:35;;;;;;;7.38;6.97;;;20.30;99.90;;;;;;4204077;28;20248;-61
2023/08/26 06:47:55;;;;;;;6.60;5.97;;;20.40;99.90;;;;;;4205067;28;20062;-61
2023/08/26 06:50:16;;;;;;;7.68;7.38;;;20.50;99.90;;;;;;4201512;28;20048;-61
2023/08/26 06:52:35;;;;;;;6.93;6.53;;;20.80;99.90;;;;;;4203089;28;20044;-61
2023/08/26 06:54:55;;;;;;;7.20;6.85;;;21.00;99.90;;;;;;4205087;28;20124;-62
2023/08/26 06:57:14;;;;;;;6.55;6.20;;;21.00;99.90;;;;;;4201303;28;20054;-61
2023/08/26 06:59:34;;;;;;;6.45;6.07;;;21.00;99.90;;;;;;4202345;28;20047;-62
2023/08/26 07:01:54;;;;;;;7.32;7.05;;;21.00;99.90;;;;;;4205016;28;20040;-61
2023/08/26 07:04:14;;;;;;;8.30;7.85;;;21.10;99.90;;;;;;4205254;28;20075;-61
2023/08/26 07:06:35;;;;;;;6.53;6.18;;;21.30;99.90;;;;;;4203972;28;20386;-61
2023/08/26 07:08:56;;;;;;;7.15;6.75;;;21.40;99.90;;;;;;4204686;28;20100;-61
2023/08/26 07:11:16;;;;;;;6.53;6.20;;;21.60;99.90;;;;;;4204577;28;20083;-62
2023/08/26 07:13:36;;;;;;;7.00;6.28;;;21.70;99.90;;;;;;4182263;28;20083;-61
2023/08/26 07:15:55;;;;;;;6.00;5.80;;;21.80;99.90;;;;;;4205480;28;20378;-62
2023/08/26 07:18:15;;;;;;;6.82;6.63;;;22.10;99.90;;;;;;4203227;28;20106;-61
2023/08/26 07:20:39;;;;;;;6.57;6.28;;;22.40;99.90;;;;;;4201283;28;20083;-61
2023/08/26 07:23:00;;;;;;;6.65;6.47;;;22.50;99.90;;;;;;4202505;28;20101;-61
2023/08/26 07:25:20;;;;;;;6.57;6.28;;;22.60;99.90;;;;;;4204933;28;20389;-61
2023/08/26 07:27:40;;;;;;;7.22;6.50;;;22.60;99.90;;;;;;4204651;28;20396;-62
2023/08/26 07:30:00;;;;;;;5.57;5.13;;;22.70;99.90;;;;;;4200609;28;20054;-61
2023/08/26 07:32:20;;;;;;;4.97;4.88;;;22.70;99.50;;;;;;4202023;28;20051;-61
2023/08/26 07:34:40;;;;;;;5.78;5.28;;;23.10;99.50;;;;;;4204667;28;20108;-61
2023/08/26 07:36:59;;;;;;;5.18;4.78;;;23.30;98.00;;;;;;4203146;28;20056;-62
2023/08/26 07:39:21;;;;;;;4.03;3.92;;;23.50;97.60;;;;;;4205208;28;20079;-61
2023/08/26 07:41:41;;;;;;;4.93;4.70;;;23.60;97.90;;;;;;4202384;28;20043;-62
2023/08/26 07:44:03;;;;;;;4.20;3.20;;;23.80;96.40;;;;;;4200350;28;20059;-61
2023/08/26 07:46:23;;;;;;;3.33;3.22;;;23.80;95.20;;;;;;4205035;28;20235;-62
2023/08/26 07:48:45;;;;;;;;;;;24.00;95.20;;;;;;4204567;28;20406;-61
2023/08/26 07:51:05;;;;;;;3.10;2.90;;;24.10;94.00;;;;;;4202344;28;20014;-62
2023/08/26 07:53:25;;;;;;;3.08;2.85;;;24.20;94.10;;;;;;4203660;28;20043;-62
2023/08/26 07:55:45;;;;;;;3.30;3.08;;;24.40;93.90;;;;;;4202143;28;20090;-62
2023/08/26 07:58:05;;;;;;;3.03;2.92;;;25.00;93.50;;;;;;4202489;28;20365;-62
2023/08/26 08:00:25;;;;;;;3.80;2.70;;;25.00;92.40;;;;;;4202853;28;20048;-62
2023/08/26 08:02:46;;;;;;;5.43;2.95;;;25.00;93.00;;;;;;4203251;28;20087;-62
2023/08/26 08:05:06;;;;;;;3.97;3.78;;;25.00;92.90;;;;;;4204012;28;20387;-62
2023/08/26 08:07:26;;;;;;;4.03;3.60;;;24.90;92.90;;;;;;4202318;28;20251;-62
2023/08/26 08:09:46;;;;;;;3.35;3.25;;;25.00;92.40;;;;;;4202502;28;20082;-62
2023/08/26 08:12:09;;;;;;;3.38;3.28;;;25.10;92.20;;;;;;4204256;28;20039;-62
2023/08/26 08:14:29;;;;;;;4.10;3.90;;;25.30;92.10;;;;;;4201440;28;20427;-62
2023/08/26 08:16:49;;;;;;;3.38;2.95;;;25.60;92.50;;;;;;4203946;28;20054;-62
2023/08/26 08:19:09;;;;;;;3.05;2.95;;;25.80;91.60;;;;;;4203058;28;20147;-62
2023/08/26 08:21:29;;;;;;;3.38;3.25;;;26.20;91.80;;;;;;4204583;28;20082;-62
2023/08/26 08:23:49;;;;;;;3.22;3.13;;;26.30;92.00;;;;;;4203073;28;20051;-62
2023/08/26 08:26:11;;;;;;;2.88;2.67;;;26.40;91.60;;;;;;4204737;28;20143;-62
2023/08/26 08:28:30;;;;;;;2.75;2.65;;;26.60;91.40;;;;;;4204863;28;20035;-62
2023/08/26 08:30:51;;;;;;;2.92;2.72;;;27.00;91.70;;;;;;4204410;28;20394;-62
2023/08/26 08:33:11;;;;;;;2.53;2.45;;;27.20;91.40;;;;;;4204072;28;20055;-62
2023/08/26 08:35:31;;;;;;;2.78;2.45;;;27.30;91.50;;;;;;4204070;28;20075;-62
2023/08/26 08:37:52;;;;;;;3.63;3.20;;;27.70;90.00;;;;;;4203384;28;20071;-62
2023/08/26 08:40:12;;;;;;;3.17;2.97;;;27.60;90.40;;;;;;4204155;28;20051;-62
2023/08/26 08:42:36;;;;;;;3.40;3.17;;;27.50;89.30;;;;;;4201351;28;20059;-62
2023/08/26 08:44:57;;;;;;;3.55;2.60;;;27.50;88.80;;;;;;4201433;28;20051;-62
2023/08/26 08:47:17;;;;;;;3.15;2.65;;;27.50;88.20;;;;;;4201978;28;20108;-62
2023/08/26 08:49:37;;;;;;;2.17;2.08;;;28.00;88.40;;;;;;4200757;28;20122;-62
2023/08/26 08:51:58;;;;;;;3.30;2.90;;;28.30;90.50;;;;;;4203278;28;20100;-62
2023/08/26 08:54:18;;;;;;;4.55;2.67;;;28.50;87.80;;;;;;4202834;28;20172;-62
2023/08/26 08:56:39;;;;;;;2.72;2.63;;;28.40;88.20;;;;;;4202553;28;20051;-62
2023/08/26 08:59:01;;;;;;;3.95;2.95;;;28.80;86.70;;;;;;4201361;28;20086;-62
2023/08/26 09:01:25;;;;;;;2.78;2.67;;;28.70;86.30;;;;;;4198135;28;20086;-62
2023/08/26 09:03:46;;;;;;;2.25;2.10;;;28.80;85.50;;;;;;4201015;28;20078;-62
2023/08/26 09:06:07;;;;;;;2.90;2.70;;;29.30;84.50;;;;;;4202752;28;20040;-62
2023/08/26 09:08:28;;;;;;;3.75;2.55;;;29.40;84.10;;;;;;4197887;28;20052;-62
2023/08/26 09:10:49;;;;;;;6.18;2.55;;;29.60;84.50;;;;;;4202489;28;20067;-59
2023/08/26 09:13:09;;;;;;;2.70;2.20;;;29.80;83.50;;;;;;4200889;28;20087;-59
2023/08/26 09:15:29;;;;;;;2.58;2.38;;;29.80;82.10;;;;;;4201612;28;20054;-59
2023/08/26 09:17:51;;;;;;;2.30;2.20;;;30.20;85.00;;;;;;4200997;28;20409;-59
2023/08/26 09:20:11;;;;;;;2.72;2.22;;;30.10;80.80;;;;;;4201527;28;20043;-59
2023/08/26 09:22:32;;;;;;;5.78;2.90;;;30.10;81.00;;;;;;4202588;28;20083;-59
2023/08/26 09:24:56;;;;;;;2.20;2.10;;;29.90;79.70;;;;;;4195468;28;20068;-59
2023/08/26 09:27:16;;;;;;;2.33;2.22;;;29.90;80.30;;;;;;4199711;28;20253;-59
2023/08/26 09:29:38;;;;;;;4.13;1.98;;;30.10;82.50;;;;;;4198280;28;20070;-60
2023/08/26 09:31:58;;;;;;;3.03;2.03;;;30.60;82.20;;;;;;4195275;28;20259;-59
2023/08/26 09:34:32;;;;;;;1.60;1.60;;;30.90;80.50;;;;;;4201472;28;20086;-60
2023/08/26 09:36:52;;;;;;;1.75;1.65;;;30.90;79.80;;;;;;4199641;28;20061;-59
2023/08/26 09:39:15;;;;;;;2.70;2.55;;;31.10;77.70;;;;;;4199913;28;20085;-60
2023/08/26 09:41:36;;;;;;;2.92;1.55;;;30.90;76.50;;;;;;4201020;28;20060;-59
2023/08/26 09:43:56;;;;;;;2.03;1.92;;;31.10;78.10;;;;;;4200960;28;20093;-60
2023/08/26 09:46:20;;;;;;;1.67;1.58;;;31.40;76.10;;;;;;4198790;28;20101;-59
2023/08/26 09:48:41;;;;;;;2.28;2.17;;;31.50;77.00;;;;;;4197828;28;20048;-59
2023/08/26 09:51:06;;;;;;;2.65;1.63;;;31.50;74.20;;;;;;4200524;28;20108;-59
2023/08/26 09:53:31;;;;;;;1.85;1.77;;;31.40;74.30;;;;;;4201390;28;20047;-59
2023/08/26 09:55:52;;;;;;;1.83;1.70;;;31.30;75.10;;;;;;4200804;28;20367;-59
2023/08/26 09:58:12;;;;;;;1.45;1.33;;;31.20;74.40;;;;;;4203572;28;20259;-59
2023/08/26 10:00:32;;;;;;;1.67;1.67;;;31.00;75.40;;;;;;4204061;28;20048;-60
2023/08/26 10:02:59;;;;;;;1.75;1.52;;;31.10;76.50;;;;;;4202318;28;20240;-59
2023/08/26 10:05:21;;;;;;;1.65;1.50;;;31.30;74.30;;;;;;4203158;28;20110;-59
2023/08/26 10:07:46;;;;;;;2.13;2.03;;;31.80;74.00;;;;;;4201630;28;20420;-59
2023/08/26 10:10:16;;;;;;;2.03;1.92;;;31.80;75.90;;;;;;4201906;28;20078;-59
2023/08/26 10:12:43;;;;;;;3.38;1.63;;;32.10;73.50;;;;;;4200878;28;20148;-60
2023/08/26 10:15:07;;;;;;;6.25;2.10;;;32.10;73.00;;;;;;4203787;28;20043;-59
2023/08/26 10:17:30;;;;;;;2.17;1.70;;;32.20;73.20;;;;;;4201019;28;20082;-59
2023/08/26 10:19:52;;;;;;;1.40;1.30;;;32.20;70.80;;;;;;4205400;28;20052;-59
2023/08/26 10:22:12;;;;;;;2.23;1.40;;;32.00;71.70;;;;;;4204623;28;20036;-59
2023/08/26 10:24:32;;;;;;;1.90;1.80;;;32.00;72.60;;;;;;4203171;28;20243;-59
2023/08/26 10:26:54;;;;;;;1.30;1.20;;;32.30;74.10;;;;;;4185992;28;20136;-59
2023/08/26 10:29:15;;;;;;;1.67;1.58;;;32.20;71.30;;;;;;4189862;28;20060;-58
2023/08/26 10:31:43;;;;;;;2.05;1.95;;;32.10;72.50;;;;;;4201536;28;20236;-59
2023/08/26 10:34:06;;;;;;;1.77;1.55;;;32.00;71.60;;;;;;4204055;28;20048;-59
2023/08/26 10:36:27;;;;;;;1.90;1.58;;;31.90;72.20;;;;;;4204186;28;20043;-59
2023/08/26 10:38:58;;;;;;;3.88;1.65;;;32.20;70.20;;;;;;4204490;28;20051;-59
2023/08/26 10:41:17;;;;;;;1.85;1.73;;;32.10;70.70;;;;;;4204967;28;20043;-59
2023/08/26 10:43:58;;;;;;;1.38;1.20;;;32.10;69.90;;;;;;4203915;28;20052;-59
2023/08/26 10:46:18;;;;;;;1.77;1.67;;;32.00;69.50;;;;;;4203474;28;20082;-59
2023/08/26 10:48:55;;;;;;;2.25;1.70;;;32.00;69.30;;;;;;4200643;28;20074;-59
2023/08/26 10:51:15;;;;;;;1.73;1.30;;;32.10;68.40;;;;;;4201747;28;20130;-59
2023/08/26 10:53:46;;;;;;;2.55;1.65;;;31.80;68.70;;;;;;4205027;28;20090;-58
2023/08/26 10:56:13;;;;;;;1.73;1.38;;;32.30;70.10;;;;;;4201589;28;20423;-59
2023/08/26 10:58:45;;;;;;;2.85;1.65;;;32.40;67.30;;;;;;4202481;28;20123;-59
2023/08/26 11:01:05;;;;;;;2.10;2.00;;;32.40;67.30;;;;;;4203760;28;20067;-57
2023/08/26 11:03:25;;;;;;;2.95;1.88;;;32.60;67.30;;;;;;4204046;28;20079;-58
2023/08/26 11:05:47;;;;;;;2.90;1.83;;;32.60;66.30;;;;;;4204642;28;20051;-57
2023/08/26 11:08:07;;;;;;;1.55;1.10;;;32.60;67.00;;;;;;4204091;28;20116;-58
2023/08/26 11:10:29;;;;;;;1.52;1.42;;;32.40;66.60;;;;;;4201233;28;20109;-58
2023/08/26 11:12:49;;;;;;;2.65;1.83;;;32.40;66.80;;;;;;4200488;28;20063;-58
2023/08/26 11:15:09;;;;;;;2.25;1.63;;;32.50;65.30;;;;;;4203044;28;20112;-58
2023/08/26 11:17:29;;;;;;;2.55;2.38;;;32.70;65.00;;;;;;4203604;28;20062;-57
2023/08/26 11:19:54;;;;;;;1.60;1.40;;;32.70;65.50;;;;;;4202259;28;20043;-57
2023/08/26 11:22:14;;;;;;;4.47;1.90;;;32.80;65.80;;;;;;4203971;28;20085;-58
2023/08/26 11:24:34;;;;;;;1.90;1.90;;;33.20;64.90;;;;;;4205980;28;20074;-58
2023/08/26 11:26:54;;;;;;;2.28;1.70;;;33.00;65.10;;;;;;4204594;28;20059;-57
2023/08/26 11:29:14;;;;;;;3.10;2.33;;;33.10;65.40;;;;;;4205834;28;20097;-57
2023/08/26 11:31:36;;;;;;;2.15;2.05;;;33.10;66.20;;;;;;4203923;28;20047;-57
2023/08/26 11:33:56;;;;;;;3.13;1.90;;;32.90;64.90;;;;;;4203695;28;20090;-57
2023/08/26 11:36:20;;;;;;;4.85;1.90;;;33.00;65.00;;;;;;4204369;28;20073;-57
2023/08/26 11:38:40;;;;;;;2.50;2.30;;;33.00;64.90;;;;;;4203311;28;20059;-58
2023/08/26 11:41:06;;;;;;;2.88;2.78;;;33.40;66.00;;;;;;4203035;28;20071;-58
2023/08/26 11:43:26;;;;;;;2.60;2.50;;;33.60;64.60;;;;;;4202535;28;20292;-58
2023/08/26 11:45:50;;;;;;;4.07;2.08;;;33.70;64.10;;;;;;4204167;28;20046;-58
2023/08/26 11:48:13;;;;;;;2.65;2.17;;;33.80;65.10;;;;;;4204422;28;20236;-57
2023/08/26 11:50:34;;;;;;;2.83;1.88;;;33.60;65.90;;;;;;4202581;28;20044;-58
2023/08/26 11:52:54;;;;;;;2.42;2.00;;;33.40;63.40;;;;;;4203932;28;20082;-58
2023/08/26 11:55:15;;;;;;;2.28;2.22;;;33.60;65.50;;;;;;4205255;28;20047;-58
2023/08/26 11:57:40;;;;;;;2.92;2.83;;;34.00;64.20;;;;;;4201976;28;20060;-58
2023/08/26 12:00:09;;;;;;;2.67;2.58;;;34.10;63.90;;;;;;4182653;28;20052;-58
2023/08/26 12:02:29;;;;;;;2.15;2.05;;;34.30;60.70;;;;;;4201544;28;20082;-58
2023/08/26 12:04:59;;;;;;;3.20;3.00;;;34.50;59.90;;;;;;4202034;28;20047;-58
2023/08/26 12:07:19;;;;;;;3.13;2.90;;;34.60;59.20;;;;;;4204961;28;20040;-58
2023/08/26 12:09:39;;;;;;;2.63;2.53;;;34.90;60.40;;;;;;4204048;28;20147;-58
2023/08/26 12:12:03;;;;;;;2.65;2.55;;;34.70;64.10;;;;;;4204364;28;20046;-58
2023/08/26 12:14:23;;;;;;;2.78;2.47;;;35.20;61.00;;;;;;4204540;28;20090;-58